Time;durP1;ratioP1;P1;durP2;ratioP2;P2;SDS_P1;SDS_P2;PMS_P1;PMS_P2;Temp;Humidity;BMP_temperature;BMP_pressure;BME280_temperature;BME280_humidity;BME280_pressure;Samples;Min_cycle;Max_cycle;Signal;HPM_P1;HPM_P2
2022/03/10 00:00:13;;;;;;;;;;;4.90;69.10;;;3.26;46.04;102014.41;2569168;30;138848;-41
2022/03/10 00:02:45;;;;;;;;;;;4.80;69.30;;;3.16;45.84;102009.81;2568562;30;137935;-40
2022/03/10 00:05:15;;;;;;;;;;;4.80;69.60;;;3.14;45.89;102009.09;2570434;30;138973;-40
2022/03/10 00:07:43;;;;;;;;;;;4.70;69.60;;;3.07;46.00;102009.78;2568656;30;137766;-40
2022/03/10 00:10:10;;;;;;;;;;;4.70;70.00;;;3.00;46.97;102006.75;2570352;30;136884;-40
2022/03/10 00:12:48;;;;;;;;;;;4.60;70.70;;;2.98;46.21;102015.00;2568791;30;137379;-41
2022/03/10 00:15:16;;;;;;;;;;;4.60;70.00;;;2.96;47.04;102010.69;2567768;30;137285;-39
2022/03/10 00:17:43;;;;;;;;;;;4.50;70.90;;;2.94;46.74;102010.84;2567126;30;137463;-43
2022/03/10 00:20:12;;;;;;;;;;;4.50;71.20;;;2.90;46.71;102014.78;2568371;30;138395;-41
2022/03/10 00:22:57;;;;;;;;;;;4.50;70.60;;;2.90;45.84;102022.88;2569707;30;137188;-39
2022/03/10 00:25:25;;;;;;;;;;;4.50;69.70;;;2.95;46.14;102026.03;2568303;30;139200;-42
2022/03/10 00:27:52;;;;;;;;;;;4.50;70.00;;;2.98;46.70;102028.47;2568801;30;137062;-41
2022/03/10 00:30:20;;;;;;;;;;;4.50;70.60;;;2.93;46.41;102036.09;2569829;30;138507;-39
2022/03/10 00:32:49;;;;;;;;;;;4.50;70.30;;;2.88;46.89;102038.31;2571954;30;137155;-39
2022/03/10 00:35:23;;;;;;;;;;;4.50;71.10;;;2.80;47.66;102047.09;2569723;30;138380;-41
2022/03/10 00:37:57;;;;;;;;;;;4.40;71.90;;;2.71;47.46;102037.94;2571006;30;137156;-41
2022/03/10 00:40:25;;;;;;;;;;;4.30;71.60;;;2.64;47.15;102039.44;2569064;30;138429;-39
2022/03/10 00:42:53;;;;;;;;;;;4.30;71.30;;;2.56;47.86;102041.94;2567876;30;137219;-40
2022/03/10 00:45:20;;;;;;;;;;;4.20;72.00;;;2.54;48.24;102041.19;2569464;30;139560;-39
2022/03/10 00:47:50;;;;;;;;;;;4.20;72.20;;;2.49;48.55;102041.59;2569946;30;137150;-41
2022/03/10 00:50:20;;;;;;;;;;;4.10;72.80;;;2.41;49.14;102041.38;2569155;30;137272;-40
2022/03/10 00:52:48;;;;;;;;;;;4.00;73.30;;;2.32;49.06;102042.16;2569915;30;137096;-40
2022/03/10 00:55:17;;;;;;;;;;;4.00;73.20;;;2.34;48.18;102041.03;2569707;30;137960;-40
2022/03/10 00:57:46;;;;;;;;;;;4.00;72.60;;;2.29;48.22;102036.06;2569748;30;136960;-40
2022/03/10 01:00:16;;;;;;;;;;;3.90;72.60;;;2.22;48.87;102045.59;2570714;30;137962;-41
2022/03/10 01:02:44;;;;;;;;;;;3.90;73.10;;;2.21;48.63;102045.75;2567114;30;137439;-41
2022/03/10 01:05:12;;;;;;;;;;;3.90;73.00;;;2.19;48.27;102048.56;2568822;30;138269;-40
2022/03/10 01:07:41;;;;;;;;;;;3.80;72.30;;;2.21;48.10;102045.75;2572061;30;137138;-41
2022/03/10 01:10:12;;;;;;;;;;;3.80;72.50;;;2.19;48.85;102042.31;2567983;30;139100;-40
2022/03/10 01:12:42;;;;;;;;;;;3.80;73.40;;;2.13;49.05;102039.16;2571769;30;137083;-40
2022/03/10 01:17:56;;;;;;;;;;;3.70;73.80;;;1.94;49.78;102031.72;2568542;30;137068;-39
2022/03/10 01:20:25;;;;;;;;;;;3.60;74.00;;;1.88;49.94;102026.00;2566814;30;138516;-40
2022/03/10 01:22:52;;;;;;;;;;;3.60;74.10;;;1.75;50.76;101999.25;2569102;30;137118;-39
2022/03/10 01:25:19;;;;;;;;;;;3.50;75.20;;;1.84;51.26;102023.53;2568929;30;138149;-40
2022/03/10 01:27:48;;;;;;;;;;;3.50;76.00;;;1.85;51.43;102024.41;2568897;30;137468;-41
2022/03/10 01:30:15;;;;;;;;;;;3.50;76.00;;;1.88;50.85;102026.84;2569072;30;138293;-41
2022/03/10 01:32:44;;;;;;;;;;;3.50;75.60;;;1.96;50.80;102027.06;2568444;30;137331;-40
2022/03/10 01:35:12;;;;;;;;;;;3.50;75.60;;;1.94;50.44;102014.75;2567936;30;137303;-40
2022/03/10 01:37:41;;;;;;;;;;;3.50;75.40;;;1.99;51.42;102015.22;2566487;30;137617;-40
2022/03/10 01:40:11;;;;;;;;;;;3.60;76.20;;;2.00;50.90;102022.31;2565611;30;139281;-40
2022/03/10 01:42:39;;;;;;;;;;;3.60;75.70;;;1.99;50.55;102016.06;2568095;30;136710;-39
2022/03/10 01:45:08;;;;;;;;;;;3.60;75.40;;;1.99;50.65;102021.47;2567767;30;138256;-39
2022/03/10 01:47:37;;;;;;;;;;;3.60;75.70;;;1.99;51.68;102021.47;2567734;30;137084;-41
2022/03/10 01:50:09;;;;;;;;;;;3.60;76.70;;;1.95;50.90;102014.59;2568401;30;137600;-40
2022/03/10 01:52:37;;;;;;;;;;;3.60;75.80;;;1.98;50.71;102018.88;2568230;30;136720;-40
2022/03/10 01:55:06;;;;;;;;;;;3.60;75.90;;;1.96;51.40;102018.16;2569614;30;139254;-39
2022/03/10 01:57:34;;;;;;;;;;;3.60;76.30;;;1.96;51.16;102015.47;2568534;30;137094;-39
2022/03/10 02:00:04;;;;;;;;;;;3.60;76.20;;;1.97;51.73;102011.78;2567226;30;138962;-39
2022/03/10 02:02:31;;;;;;;;;;;3.60;76.80;;;1.98;51.30;102010.81;2568827;30;136723;-40
2022/03/10 02:04:59;;;;;;;;;;;3.60;76.30;;;1.97;51.31;102003.72;2569516;30;138093;-41
2022/03/10 02:10:18;;;;;;;;;;;3.60;75.80;;;1.94;51.32;102012.88;2567768;30;137661;-39
2022/03/10 02:12:51;;;;;;;;;;;3.60;76.60;;;1.90;51.29;102007.91;2568651;30;136805;-40
2022/03/10 02:18:05;;;;;;;;;;;3.50;76.50;;;1.86;51.72;102002.78;2567754;30;137482;-40
2022/03/10 02:20:35;;;;;;;;;;;3.50;76.90;;;1.79;51.92;101998.84;2567343;30;138401;-39
2022/03/10 02:23:03;;;;;;;;;;;3.40;77.00;;;1.82;51.95;102011.22;2568879;30;136572;-38
2022/03/10 02:25:32;;;;;;;;;;;3.40;77.30;;;1.81;51.82;102010.34;2567593;30;136769;-40
2022/03/10 02:28:00;;;;;;;;;;;3.40;77.10;;;1.78;52.08;102015.97;2566844;30;137169;-39
2022/03/10 02:30:31;;;;;;;;;;;3.40;77.10;;;1.74;51.76;102011.84;2567825;30;139395;-40
2022/03/10 02:32:59;;;;;;;;;;;3.40;77.10;;;1.69;52.49;102003.28;2568970;30;137112;-41
2022/03/10 02:35:26;;;;;;;;;;;3.30;77.50;;;1.71;52.32;102001.31;2566982;30;137908;-41
2022/03/10 02:37:54;;;;;;;;;;;3.30;77.70;;;1.62;53.08;102011.00;2567695;30;137228;-39
2022/03/10 02:40:22;;;;;;;;;;;3.30;78.60;;;1.61;53.34;102005.75;2568983;30;139276;-42
2022/03/10 02:42:49;;;;;;;;;;;3.30;78.60;;;1.56;53.57;101998.88;2565775;30;137283;-39
2022/03/10 02:45:17;;;;;;;;;;;3.20;79.00;;;1.57;53.76;101995.22;2568033;30;138187;-41
2022/03/10 02:47:44;;;;;;;;;;;3.20;79.20;;;1.57;53.66;101989.84;2568255;30;137000;-40
2022/03/10 02:50:12;;;;;;;;;;;3.20;79.00;;;1.64;54.48;101997.44;2568940;30;137853;-39
2022/03/10 02:52:39;;;;;;;;;;;3.20;80.30;;;1.62;54.08;101991.31;2568821;30;137199;-41
2022/03/10 02:55:08;;;;;;;;;;;3.20;79.60;;;1.60;53.89;101987.91;2566810;30;139370;-40
2022/03/10 02:57:37;;;;;;;;;;;3.20;79.70;;;1.58;54.56;101985.31;2567236;30;136970;-40
2022/03/10 03:00:08;;;;;;;;;;;3.20;80.10;;;1.61;54.76;101990.44;2568192;30;138135;-40
2022/03/10 03:02:36;;;;;;;;;;;3.20;80.60;;;1.61;54.84;101993.16;2568688;30;137186;-39
2022/03/10 03:05:04;;;;;;;;;;;3.20;80.90;;;1.62;55.13;101996.69;2567577;30;138240;-40
2022/03/10 03:07:32;;;;;;;;;;;3.20;81.00;;;1.65;55.30;101986.53;2567882;30;137305;-40
2022/03/10 03:10:01;;;;;;;;;;;3.30;81.30;;;1.62;56.00;101988.63;2568966;30;138136;-40
2022/03/10 03:12:29;;;;;;;;;;;3.30;82.20;;;1.65;55.83;101996.44;2567373;30;137499;-39
2022/03/10 03:14:56;;;;;;;;;;;3.30;82.00;;;1.64;55.25;101989.38;2568998;30;138258;-40
2022/03/10 03:17:27;;;;;;;;;;;3.20;81.40;;;1.66;55.26;101985.53;2568687;30;137824;-40
2022/03/10 03:19:55;;;;;;;;;;;3.30;81.40;;;1.66;55.00;101992.78;2568855;30;138173;-39
2022/03/10 03:22:22;;;;;;;;;;;3.30;81.30;;;1.65;55.06;101999.13;2567914;30;137110;-39
2022/03/10 03:24:49;;;;;;;;;;;3.30;81.30;;;1.66;55.31;101998.16;2568364;30;138279;-40
2022/03/10 03:27:17;;;;;;;;;;;3.30;81.30;;;1.56;55.22;101990.81;2567879;30;137905;-39
2022/03/10 03:29:44;;;;;;;;;;;3.30;81.50;;;1.60;55.35;102002.19;2568060;30;139045;-38
2022/03/10 03:32:11;;;;;;;;;;;3.20;81.30;;;1.53;55.75;101996.44;2568246;30;137826;-39
2022/03/10 03:34:39;;;;;;;;;;;3.20;82.30;;;1.49;56.02;102004.91;2567461;30;138977;-40
2022/03/10 03:37:07;;;;;;;;;;;3.10;82.10;;;1.39;55.82;101992.19;2568134;30;138012;-39
2022/03/10 03:39:34;;;;;;;;;;;3.10;81.90;;;1.43;55.61;102017.00;2567497;30;138268;-39
2022/03/10 03:42:02;;;;;;;;;;;3.10;81.80;;;1.39;55.87;102004.78;2567656;30;139598;-39
2022/03/10 03:44:29;;;;;;;;;;;3.00;82.00;;;1.36;56.03;102007.72;2566202;30;138403;-39
2022/03/10 03:46:56;;;;;;;;;;;3.00;82.30;;;1.28;56.22;102017.25;2566896;30;137606;-40
2022/03/10 03:49:24;;;;;;;;;;;2.90;82.30;;;1.18;57.19;102010.91;2568371;30;138199;-40
2022/03/10 03:51:51;;;;;;;;;;;2.80;83.70;;;1.10;57.60;102007.97;2567851;30;137044;-40
2022/03/10 03:54:18;;;;;;;;;;;2.80;83.90;;;1.04;57.20;102013.81;2567764;30;137993;-40
2022/03/10 03:56:46;;;;;;;;;;;2.70;83.50;;;0.98;57.42;102026.75;2568156;30;138098;-41
2022/03/10 03:59:13;;;;;;;;;;;2.70;84.00;;;0.92;57.69;102021.00;2568615;30;138450;-39
2022/03/10 04:01:41;;;;;;;;;;;2.60;84.10;;;0.84;58.01;102019.75;2567549;30;136974;-39
2022/03/10 04:04:08;;;;;;;;;;;2.50;84.50;;;0.79;57.90;102029.16;2567107;30;137439;-40
2022/03/10 04:06:36;;;;;;;;;;;2.50;84.50;;;0.68;58.30;102036.22;2568628;30;136980;-40
2022/03/10 04:09:03;;;;;;;;;;;2.40;85.00;;;0.60;58.98;102030.59;2568653;30;137471;-40
2022/03/10 04:11:30;;;;;;;;;;;2.30;85.30;;;0.55;59.61;102025.56;2566805;30;136979;-39
2022/03/10 04:13:58;;;;;;;;;;;2.30;86.20;;;0.43;60.08;102021.97;2567911;30;138616;-40
2022/03/10 04:16:25;;;;;;;;;;;2.20;86.70;;;0.37;60.16;102022.44;2568679;30;138836;-40
2022/03/10 04:18:52;;;;;;;;;;;2.10;86.90;;;0.29;60.57;102027.53;2568494;30;138933;-39
2022/03/10 04:21:20;;;;;;;;;;;2.00;87.30;;;0.25;60.53;102023.34;2568118;30;137093;-38
2022/03/10 04:23:47;;;;;;;;;;;2.00;87.60;;;0.20;60.82;102022.84;2568383;30;137771;-40
2022/03/10 04:26:14;;;;;;;;;;;1.90;87.90;;;0.17;61.18;102025.75;2568585;30;137095;-40
2022/03/10 04:28:42;;;;;;;;;;;1.90;88.00;;;0.13;61.39;102025.13;2568883;30;139183;-39
2022/03/10 04:31:09;;;;;;;;;;;1.80;88.70;;;0.14;61.11;102021.50;2566719;30;136670;-39
2022/03/10 04:33:37;;;;;;;;;;;1.80;88.40;;;0.17;60.86;102021.25;2569216;30;138220;-40
2022/03/10 04:36:05;;;;;;;;;;;1.80;88.40;;;0.11;61.11;102016.31;2569179;30;138034;-39
2022/03/10 04:38:32;;;;;;;;;;;1.80;89.10;;;0.07;61.18;102015.72;2570116;30;137298;-39
2022/03/10 04:41:00;;;;;;;;;;;1.80;88.40;;;0.12;60.88;102026.09;2568527;30;138122;-40
2022/03/10 04:43:28;;;;;;;;;;;1.80;88.20;;;0.11;60.82;102021.69;2569365;30;138439;-39
2022/03/10 04:45:55;;;;;;;;;;;1.80;88.30;;;0.10;60.61;102031.59;2568224;30;136867;-39
2022/03/10 04:48:24;;;;;;;;;;;1.80;88.10;;;0.14;60.76;102034.91;2568306;30;138084;-41
2022/03/10 04:50:52;;;;;;;;;;;1.80;88.10;;;0.07;62.30;102029.13;2568471;30;136949;-39
2022/03/10 04:53:19;;;;;;;;;;;1.70;89.70;;;0.06;62.04;102031.91;2569241;30;139116;-40
2022/03/10 04:55:47;;;;;;;;;;;1.70;89.80;;;-0.01;62.99;102028.81;2566089;30;137499;-39
2022/03/10 04:58:14;;;;;;;;;;;1.70;90.20;;;-0.08;63.17;102027.56;2569923;30;138202;-38
2022/03/10 05:00:42;;;;;;;;;;;1.60;90.30;;;-0.16;62.97;102023.63;2566145;30;138082;-40
2022/03/10 05:03:09;;;;;;;;;;;1.60;90.30;;;-0.22;63.19;102015.19;2569645;30;137228;-39
2022/03/10 05:05:37;;;;;;;;;;;1.50;90.50;;;-0.20;63.59;102034.69;2566117;30;137921;-39
2022/03/10 05:08:04;;;;;;;;;;;1.50;90.50;;;-0.14;62.67;102028.88;2569178;30;138075;-39
2022/03/10 05:10:32;;;;;;;;;;;1.50;90.20;;;-0.21;63.11;102031.16;2569096;30;137617;-40
2022/03/10 05:13:01;;;;;;;;;;;1.50;90.40;;;-0.21;63.14;102025.81;2568253;30;138172;-40
2022/03/10 05:15:33;;;;;;;;;;;1.50;90.60;;;-0.18;63.54;102032.75;2567485;30;136979;-40
2022/03/10 05:18:03;;;;;;;;;;;1.50;90.70;;;-0.20;63.08;102029.31;2569092;30;138279;-39
2022/03/10 05:20:31;;;;;;;;;;;1.50;90.60;;;-0.26;63.65;102025.28;2568498;30;137997;-39
2022/03/10 05:23:02;;;;;;;;;;;1.50;90.80;;;-0.20;63.56;102024.84;2566532;30;137563;-40
2022/03/10 05:25:34;;;;;;;;;;;1.50;90.90;;;-0.18;62.85;102036.31;2568558;30;137025;-40
2022/03/10 05:28:02;;;;;;;;;;;1.50;90.60;;;-0.13;62.91;102035.09;2569326;30;137167;-39
2022/03/10 05:30:30;;;;;;;;;;;1.50;90.50;;;-0.09;62.34;102033.91;2568161;30;136836;-39
2022/03/10 05:32:58;;;;;;;;;;;1.60;90.30;;;-0.06;62.51;102041.72;2567212;30;137755;-40
2022/03/10 05:35:29;;;;;;;;;;;1.60;90.40;;;0.02;62.84;102043.84;2568777;30;137125;-40
2022/03/10 05:37:57;;;;;;;;;;;1.60;90.60;;;0.03;62.35;102041.06;2568159;30;138180;-40
2022/03/10 05:40:24;;;;;;;;;;;1.70;90.30;;;0.09;62.18;102043.31;2568285;30;136808;-38
2022/03/10 05:42:53;;;;;;;;;;;1.70;90.30;;;0.14;62.59;102038.44;2568736;30;139203;-40
2022/03/10 05:45:21;;;;;;;;;;;1.80;90.50;;;0.25;61.83;102044.81;2568121;30;137124;-38
2022/03/10 05:47:54;;;;;;;;;;;1.90;90.20;;;0.27;61.43;102048.28;2568010;30;138288;-38
2022/03/10 05:50:23;;;;;;;;;;;1.90;90.00;;;0.27;61.58;102057.19;2569053;30;136908;-40
2022/03/10 05:52:52;;;;;;;;;;;1.90;90.10;;;0.29;61.48;102051.69;2568352;30;138526;-38
2022/03/10 05:55:20;;;;;;;;;;;2.00;90.00;;;0.31;61.56;102051.56;2564875;38;137178;-39
2022/03/10 05:57:47;;;;;;;;;;;1.90;90.00;;;0.35;61.17;102053.91;2567619;30;137282;-38
2022/03/10 06:00:15;;;;;;;;;;;2.00;89.90;;;0.34;62.26;102054.91;2569361;30;136619;-39
2022/03/10 06:02:43;;;;;;;;;;;2.00;90.30;;;0.41;62.01;102052.63;2567304;30;138207;-40
2022/03/10 06:05:10;;;;;;;;;;;2.00;90.30;;;0.47;61.51;102053.97;2568240;30;137835;-39
2022/03/10 06:07:38;;;;;;;;;;;2.10;90.10;;;0.53;61.23;102062.41;2564837;30;139174;-38
2022/03/10 06:10:06;;;;;;;;;;;2.10;89.90;;;0.68;61.76;102051.50;2568360;30;136689;-39
2022/03/10 06:12:34;;;;;;;;;;;2.30;90.50;;;0.70;60.29;102071.88;2568357;30;139316;-39
2022/03/10 06:15:07;;;;;;;;;;;2.30;89.00;;;0.67;60.69;102065.91;2568969;30;136917;-40
2022/03/10 06:17:34;;;;;;;;;;;2.30;90.10;;;0.66;61.10;102073.09;2565552;30;139037;-39
2022/03/10 06:20:04;;;;;;;;;;;2.30;89.70;;;0.65;61.11;102068.69;2568999;30;136707;-40
2022/03/10 06:22:35;;;;;;;;;;;2.30;90.00;;;0.69;61.44;102074.69;2566976;30;137371;-39
2022/03/10 06:25:04;;;;;;;;;;;2.30;90.20;;;0.76;61.31;102075.06;2568811;30;137782;-39
2022/03/10 06:27:32;;;;;;;;;;;2.40;90.10;;;0.83;60.98;102076.31;2568210;30;138265;-40
2022/03/10 06:29:59;;;;;;;;;;;2.40;90.00;;;0.91;60.32;102078.41;2569008;30;136893;-41
2022/03/10 06:32:27;;;;;;;;;;;2.50;89.50;;;0.94;61.00;102075.50;2568482;30;138295;-39
2022/03/10 06:34:56;;;;;;;;;;;2.50;90.00;;;0.97;60.91;102078.78;2569114;30;137068;-40
2022/03/10 06:37:23;;;;;;;;;;;2.60;90.10;;;1.05;60.79;102080.91;2565790;30;138228;-39
2022/03/10 06:39:52;;;;;;;;;;;2.60;90.00;;;1.08;60.66;102072.59;2569342;30;137174;-41
2022/03/10 06:42:20;;;;;;;;;;;2.60;90.00;;;1.18;61.12;102072.72;2567601;30;138200;-40
2022/03/10 06:44:48;;;;;;;;;;;2.70;90.20;;;1.21;60.80;102079.72;2568257;30;137231;-40
2022/03/10 06:47:16;;;;;;;;;;;2.80;90.00;;;1.30;60.69;102081.66;2566707;30;139055;-40
2022/03/10 06:49:43;;;;;;;;;;;2.80;90.00;;;1.44;61.23;102069.81;2567313;30;137097;-40
2022/03/10 06:52:11;;;;;;;;;;;2.90;90.50;;;1.52;59.88;102075.44;2566855;30;137499;-40
2022/03/10 06:54:39;;;;;;;;;;;3.00;89.50;;;1.61;59.75;102090.00;2568719;30;136993;-40
2022/03/10 06:57:08;;;;;;;;;;;3.10;89.70;;;1.72;59.58;102084.63;2568395;30;138439;-40
2022/03/10 06:59:35;;;;;;;;;;;3.20;89.20;;;1.76;58.83;102079.00;2567653;30;137130;-39
2022/03/10 07:02:03;;;;;;;;;;;3.30;88.70;;;1.90;58.83;102092.19;2567847;30;137907;-40
2022/03/10 07:04:31;;;;;;;;;;;3.30;88.50;;;2.01;58.79;102083.22;2568265;30;137737;-40
2022/03/10 07:06:58;;;;;;;;;;;3.40;88.50;;;2.21;57.65;102088.84;2568793;30;137462;-38
2022/03/10 07:18:14;;;;;;;;;;;3.60;87.50;;;2.79;56.35;102088.50;2571546;30;138041;-41
2022/03/10 07:20:42;;;;;;;;;;;4.20;86.40;;;2.93;56.04;102092.72;2569605;30;137311;-42
2022/03/10 07:23:09;;;;;;;;;;;4.30;86.20;;;3.07;54.99;102094.25;2568289;30;137347;-40
2022/03/10 07:25:37;;;;;;;;;;;4.40;85.20;;;3.16;54.97;102100.66;2569840;30;138965;-41
2022/03/10 07:28:04;;;;;;;;;;;4.50;84.70;;;3.27;54.74;102084.41;2569584;30;137943;-41
2022/03/10 07:30:32;;;;;;;;;;;4.60;84.80;;;3.45;53.29;102087.34;2567387;30;138479;-40
2022/03/10 07:32:59;;;;;;;;;;;4.80;83.20;;;3.58;53.61;102097.91;2569218;30;138106;-40
2022/03/10 07:35:27;;;;;;;;;;;4.90;83.40;;;3.75;52.67;102100.97;2568941;30;139144;-41
2022/03/10 07:37:59;;;;;;;;;;;5.00;82.70;;;3.93;52.49;102103.00;2570630;30;137545;-41
2022/03/10 07:40:27;;;;;;;;;;;5.20;83.00;;;4.05;52.55;102098.34;2566956;30;138157;-40
2022/03/10 07:42:54;;;;;;;;;;;5.30;82.10;;;4.25;50.75;102101.97;2568382;30;137929;-40
2022/03/10 07:45:22;;;;;;;;;;;5.50;80.30;;;4.33;51.87;102096.72;2569790;30;139516;-40
2022/03/10 07:47:49;;;;;;;;;;;5.60;81.80;;;4.52;50.80;102105.88;2565757;30;137561;-40
2022/03/10 07:50:17;;;;;;;;;;;5.70;80.50;;;4.70;50.28;102106.00;2570175;30;139353;-41
2022/03/10 07:52:44;;;;;;;;;;;5.90;79.70;;;4.82;50.37;102104.84;2568229;30;136772;-39
2022/03/10 07:55:13;;;;;;;;;;;6.10;80.10;;;4.96;49.60;102095.44;2569493;30;138230;-39
2022/03/10 07:57:41;;;;;;;;;;;6.20;79.50;;;5.10;48.98;102096.00;2568072;30;136742;-40
2022/03/10 08:00:09;;;;;;;;;;;6.30;78.70;;;5.26;48.99;102095.41;2570727;30;137348;-40
2022/03/10 08:02:37;;;;;;;;;;;6.40;78.70;;;5.33;48.65;102093.81;2569211;30;137558;-40
2022/03/10 08:05:07;;;;;;;;;;;6.60;78.00;;;5.55;47.92;102091.75;2567312;30;137857;-41
2022/03/10 08:07:35;;;;;;;;;;;6.70;77.20;;;5.65;47.54;102097.13;2569051;30;137700;-41
2022/03/10 08:10:06;;;;;;;;;;;6.80;77.00;;;5.78;47.69;102094.09;2567998;30;138139;-41
2022/03/10 08:12:34;;;;;;;;;;;6.90;77.40;;;5.94;47.39;102096.16;2568975;30;136842;-41
2022/03/10 08:15:03;;;;;;;;;;;7.10;77.00;;;6.04;47.07;102088.84;2569244;30;138304;-41
2022/03/10 08:17:30;;;;;;;;;;;7.20;76.40;;;6.20;46.07;102093.59;2569236;30;137353;-41
2022/03/10 08:19:57;;;;;;;;;;;7.30;75.50;;;6.29;46.02;102090.00;2570270;30;139045;-40
2022/03/10 08:22:25;;;;;;;;;;;7.50;75.10;;;6.42;47.20;102089.63;2569016;30;136977;-40
2022/03/10 08:24:52;;;;;;;;;;;7.60;76.20;;;6.48;45.58;102091.69;2566950;30;137418;-40
2022/03/10 08:27:20;;;;;;;;;;;7.70;74.60;;;6.59;45.27;102087.03;2568059;30;138106;-41
2022/03/10 08:29:47;;;;;;;;;;;7.80;74.40;;;6.72;44.41;102095.66;2567775;30;138393;-39
2022/03/10 08:32:16;;;;;;;;;;;7.90;72.80;;;6.86;44.23;102087.94;2565648;30;137846;-39
2022/03/10 08:34:43;;;;;;;;;;;8.00;72.50;;;6.95;43.77;102075.31;2569838;30;138170;-40
2022/03/10 08:37:10;;;;;;;;;;;8.10;72.30;;;6.95;43.98;102070.75;2568964;30;137306;-41
2022/03/10 08:39:38;;;;;;;;;;;8.20;72.20;;;7.19;44.46;102078.19;2568203;30;139220;-40
2022/03/10 08:42:06;;;;;;;;;;;8.40;73.40;;;7.27;43.77;102073.84;2569437;30;137794;-41
2022/03/10 08:44:33;;;;;;;;;;;8.50;72.30;;;7.37;43.49;102063.72;2567508;30;138351;-40
2022/03/10 08:47:01;;;;;;;;;;;8.50;72.10;;;7.51;42.72;102067.72;2570385;30;136942;-40
2022/03/10 08:49:28;;;;;;;;;;;8.70;71.30;;;7.59;43.47;102067.75;2567256;30;138391;-41
2022/03/10 08:51:55;;;;;;;;;;;8.80;71.80;;;7.71;43.10;102062.03;2567514;30;137103;-40
2022/03/10 08:54:24;;;;;;;;;;;8.80;71.60;;;7.81;42.48;102059.16;2568477;30;138102;-41
2022/03/10 08:56:51;;;;;;;;;;;8.90;70.70;;;7.92;41.73;102064.31;2568701;30;137037;-40
2022/03/10 08:59:19;;;;;;;;;;;9.10;70.10;;;8.04;42.89;102064.88;2568258;30;139574;-42
2022/03/10 09:01:46;;;;;;;;;;;9.20;71.60;;;8.12;41.06;102061.34;2571378;30;137838;-41
2022/03/10 09:04:14;;;;;;;;;;;9.30;69.30;;;8.19;42.33;102055.03;2568246;30;138365;-40
2022/03/10 09:06:42;;;;;;;;;;;9.40;70.70;;;8.29;41.30;102068.50;2569570;30;137304;-40
2022/03/10 09:09:09;;;;;;;;;;;9.50;69.60;;;8.40;40.74;102064.59;2571069;30;137247;-40
2022/03/10 09:11:38;;;;;;;;;;;9.60;68.70;;;8.46;40.37;102063.94;2568018;30;137097;-40
2022/03/10 09:14:05;;;;;;;;;;;9.70;68.40;;;8.56;40.70;102057.53;2570821;30;138340;-40
2022/03/10 09:16:33;;;;;;;;;;;9.80;68.70;;;8.61;40.63;102057.84;2570329;30;137798;-39
2022/03/10 09:19:00;;;;;;;;;;;9.80;68.70;;;8.76;39.91;102049.88;2569995;30;136845;-40
2022/03/10 09:21:28;;;;;;;;;;;9.90;67.90;;;8.92;39.79;102049.00;2569477;30;137604;-42
2022/03/10 09:23:55;;;;;;;;;;;10.00;67.90;;;9.05;40.38;102051.19;2571048;30;137238;-41
2022/03/10 09:26:23;;;;;;;;;;;10.20;69.00;;;9.24;41.87;102058.16;2569966;30;137356;-39
2022/03/10 09:28:50;;;;;;;;;;;10.30;70.30;;;9.30;39.89;102052.03;2568171;30;138554;-42
2022/03/10 09:31:18;;;;;;;;;;;10.40;68.10;;;9.44;40.09;102045.00;2570940;30;137153;-41
2022/03/10 09:33:46;;;;;;;;;;;10.50;68.30;;;9.55;39.74;102040.19;2568201;30;138110;-41
2022/03/10 09:36:14;;;;;;;;;;;10.70;67.90;;;9.61;38.30;102045.78;2569376;30;137780;-40
2022/03/10 09:38:42;;;;;;;;;;;10.80;66.20;;;9.74;39.20;102047.09;2569865;30;138182;-41
2022/03/10 09:41:09;;;;;;;;;;;10.90;67.10;;;9.85;38.16;102037.69;2570302;30;136663;-40
2022/03/10 09:43:38;;;;;;;;;;;10.90;66.10;;;9.93;39.55;102041.22;2570115;30;138207;-40
2022/03/10 09:46:09;;;;;;;;;;;11.00;67.60;;;10.05;38.06;102030.75;2567749;30;137347;-40
2022/03/10 09:48:39;;;;;;;;;;;11.10;65.80;;;10.18;37.83;102026.56;2569934;30;139083;-41
2022/03/10 09:51:07;;;;;;;;;;;11.30;65.80;;;10.22;37.89;102028.78;2570678;30;136959;-40
2022/03/10 09:53:38;;;;;;;;;;;11.30;65.40;;;10.38;39.68;102029.69;2566575;30;138244;-41
2022/03/10 09:56:06;;;;;;;;;;;11.40;67.70;;;10.45;37.21;102024.38;2569377;30;137403;-42
2022/03/10 09:58:33;;;;;;;;;;;11.60;64.50;;;10.55;38.83;102033.19;2569779;30;138538;-41
2022/03/10 10:01:03;;;;;;;;;;;11.70;66.80;;;10.68;38.25;102024.38;2567290;30;137313;-40
2022/03/10 10:03:30;;;;;;;;;;;11.70;66.20;;;10.81;38.53;102022.88;2570427;30;138149;-39
2022/03/10 10:06:02;;;;;;;;;;;11.80;66.60;;;10.99;38.57;102019.81;2568295;30;139143;-40
2022/03/10 10:08:38;;;;;;;;;;;12.00;67.10;;;11.06;37.63;102021.59;2568602;30;138343;-41
2022/03/10 10:11:06;;;;;;;;;;;12.10;65.50;;;11.20;37.40;102019.09;2570769;30;136633;-40
2022/03/10 10:13:43;;;;;;;;;;;12.20;65.70;;;11.29;36.68;102017.13;2568039;30;138469;-40
2022/03/10 10:16:13;;;;;;;;;;;12.30;64.60;;;11.39;36.00;102016.81;2569749;30;137051;-40
2022/03/10 10:18:41;;;;;;;;;;;12.40;63.50;;;11.53;38.55;102015.97;2571791;30;137347;-40
2022/03/10 10:21:19;;;;;;;;;;;12.50;66.70;;;11.64;36.67;102006.44;2568975;30;137558;-41
2022/03/10 10:23:48;;;;;;;;;;;12.70;64.80;;;11.77;36.74;102003.03;2568780;30;139318;-41
2022/03/10 10:26:16;;;;;;;;;;;12.70;64.30;;;11.93;36.37;102010.16;2568263;30;136821;-42
2022/03/10 10:28:50;;;;;;;;;;;12.90;64.60;;;12.00;35.50;102012.97;2569059;30;138980;-40
2022/03/10 10:31:24;;;;;;;;;;;13.00;63.30;;;12.01;34.45;102011.97;2566895;30;137604;-41
2022/03/10 10:34:05;;;;;;;;;;;13.10;61.80;;;12.08;34.93;102010.16;2569935;30;138260;-40
2022/03/10 10:36:37;;;;;;;;;;;13.20;62.30;;;12.17;35.58;102014.44;2570107;30;137264;-41
2022/03/10 10:39:17;;;;;;;;;;;13.20;62.90;;;12.27;35.10;102018.75;2569583;30;138200;-40
2022/03/10 10:41:47;;;;;;;;;;;13.30;62.70;;;12.44;35.02;102011.97;2566023;30;137254;-42
2022/03/10 10:44:20;;;;;;;;;;;13.40;62.30;;;12.51;33.92;102012.03;2568353;30;137891;-40
2022/03/10 10:46:53;;;;;;;;;;;13.50;61.40;;;12.55;33.53;102007.03;2570533;30;136965;-40
2022/03/10 10:49:22;;;;;;;;;;;13.60;60.20;;;12.66;36.05;102011.97;2569416;30;137813;-41
2022/03/10 10:51:51;;;;;;;;;;;13.60;63.10;;;12.71;34.29;101998.50;2568543;30;137090;-41
2022/03/10 10:54:23;;;;;;;;;;;13.80;62.40;;;12.85;34.19;102001.38;2571954;30;138334;-40
2022/03/10 10:56:57;;;;;;;;;;;13.90;60.90;;;12.94;35.42;102000.16;2570411;30;137191;-40
2022/03/10 10:59:43;;;;;;;;;;;13.90;62.50;;;13.06;35.42;101993.09;2567344;30;137953;-40
2022/03/10 11:02:12;;;;;;;;;;;14.00;62.50;;;13.17;35.09;101978.00;2568928;30;136805;-42
2022/03/10 11:04:43;;;;;;;;;;;14.20;61.70;;;13.23;33.51;101981.81;2569061;30;138288;-41
2022/03/10 11:07:11;;;;;;;;;;;14.20;60.50;;;13.31;33.86;101978.06;2570328;30;138203;-40
2022/03/10 11:09:41;;;;;;;;;;;14.30;60.70;;;13.41;33.22;101984.03;2569842;30;137856;-40
2022/03/10 11:12:10;;;;;;;;;;;14.40;60.20;;;13.50;33.34;101968.25;2567435;30;137943;-40
2022/03/10 11:14:38;;;;;;;;;;;14.50;59.90;;;13.59;33.70;101964.31;2569387;30;138491;-41
2022/03/10 11:17:06;;;;;;;;;;;14.50;60.80;;;13.65;33.47;101963.50;2568751;30;137286;-41
2022/03/10 11:19:37;;;;;;;;;;;14.60;60.30;;;13.70;33.54;101965.63;2566263;30;137459;-41
2022/03/10 11:22:23;;;;;;;;;;;14.70;60.70;;;13.79;32.19;101969.88;2568719;30;137951;-40
2022/03/10 11:25:21;;;;;;;;;;;14.70;59.40;;;13.94;32.11;101958.72;2569700;30;137345;-42
2022/03/10 11:27:53;;;;;;;;;;;14.90;61.00;;;14.10;32.59;101951.16;2569101;30;138181;-40
2022/03/10 11:30:28;;;;;;;;;;;15.00;60.40;;;14.17;31.72;101952.00;2569193;30;137834;-41
2022/03/10 11:33:18;;;;;;;;;;;15.10;58.50;;;14.19;32.64;101949.91;2567860;30;137937;-42
2022/03/10 11:35:49;;;;;;;;;;;15.20;58.10;;;14.28;32.18;101950.53;2570215;30;138161;-41
2022/03/10 11:38:18;;;;;;;;;;;15.30;58.50;;;14.38;31.73;101950.13;2570204;30;137943;-42